sensor_id;sensor_type;location;lat;lon;timestamp;pressure;altitude;pressure_sealevel;temperature;humidity
31761;BME280;18335;51.486;7.562;2023-07-22T00:02:14;100057.47;;;16.16;100.00
31761;BME280;18335;51.486;7.562;2023-07-22T00:04:41;100057.34;;;15.89;100.00
31761;BME280;18335;51.486;7.562;2023-07-22T00:07:08;100057.38;;;15.96;100.00
31761;BME280;18335;51.486;7.562;2023-07-22T00:09:35;100062.84;;;15.89;100.00
31761;BME280;18335;51.486;7.562;2023-07-22T00:12:02;100063.19;;;15.73;100.00
31761;BME280;18335;51.486;7.562;2023-07-22T00:14:30;100061.94;;;15.76;100.00
31761;BME280;18335;51.486;7.562;2023-07-22T00:16:57;100059.19;;;15.76;100.00
31761;BME280;18335;51.486;7.562;2023-07-22T00:19:24;100058.81;;;15.85;100.00
31761;BME280;18335;51.486;7.562;2023-07-22T00:21:50;100062.44;;;15.86;100.00
31761;BME280;18335;51.486;7.562;2023-07-22T00:24:17;100055.66;;;15.95;100.00
31761;BME280;18335;51.486;7.562;2023-07-22T00:26:44;100045.50;;;15.95;100.00
31761;BME280;18335;51.486;7.562;2023-07-22T00:29:11;100052.75;;;16.03;100.00
31761;BME280;18335;51.486;7.562;2023-07-22T00:31:39;100045.66;;;15.81;100.00
31761;BME280;18335;51.486;7.562;2023-07-22T00:34:07;100050.13;;;15.82;100.00
31761;BME280;18335;51.486;7.562;2023-07-22T00:36:34;100045.78;;;16.00;100.00
31761;BME280;18335;51.486;7.562;2023-07-22T00:39:00;100048.22;;;15.82;100.00
31761;BME280;18335;51.486;7.562;2023-07-22T00:41:27;100038.47;;;15.80;100.00
31761;BME280;18335;51.486;7.562;2023-07-22T00:43:55;100038.72;;;15.85;100.00
31761;BME280;18335;51.486;7.562;2023-07-22T00:46:22;100039.88;;;15.69;100.00
31761;BME280;18335;51.486;7.562;2023-07-22T00:48:50;100031.47;;;15.77;100.00
31761;BME280;18335;51.486;7.562;2023-07-22T00:51:17;100036.94;;;15.71;100.00
31761;BME280;18335;51.486;7.562;2023-07-22T00:53:44;100038.03;;;15.76;100.00
31761;BME280;18335;51.486;7.562;2023-07-22T00:56:11;100033.16;;;15.78;100.00
31761;BME280;18335;51.486;7.562;2023-07-22T00:58:38;100037.22;;;15.89;100.00
31761;BME280;18335;51.486;7.562;2023-07-22T01:01:05;100038.56;;;15.99;100.00
31761;BME280;18335;51.486;7.562;2023-07-22T01:03:32;100031.50;;;15.84;100.00
31761;BME280;18335;51.486;7.562;2023-07-22T01:06:01;100032.19;;;15.99;100.00
31761;BME280;18335;51.486;7.562;2023-07-22T01:08:27;100036.66;;;16.00;100.00
31761;BME280;18335;51.486;7.562;2023-07-22T01:10:54;100023.47;;;15.89;100.00
31761;BME280;18335;51.486;7.562;2023-07-22T01:13:21;100030.09;;;16.01;100.00
31761;BME280;18335;51.486;7.562;2023-07-22T01:15:48;100026.88;;;15.91;100.00
31761;BME280;18335;51.486;7.562;2023-07-22T01:18:15;100023.53;;;16.02;100.00
31761;BME280;18335;51.486;7.562;2023-07-22T01:20:42;100019.91;;;15.95;100.00
31761;BME280;18335;51.486;7.562;2023-07-22T01:23:11;100019.91;;;15.95;100.00
31761;BME280;18335;51.486;7.562;2023-07-22T01:25:38;100020.03;;;15.74;100.00
31761;BME280;18335;51.486;7.562;2023-07-22T01:28:09;100016.28;;;15.88;100.00
31761;BME280;18335;51.486;7.562;2023-07-22T01:30:36;100020.09;;;15.87;100.00
31761;BME280;18335;51.486;7.562;2023-07-22T01:33:02;100018.81;;;15.83;100.00
31761;BME280;18335;51.486;7.562;2023-07-22T01:35:29;100026.81;;;15.78;100.00
31761;BME280;18335;51.486;7.562;2023-07-22T01:37:56;100019.59;;;15.70;100.00
31761;BME280;18335;51.486;7.562;2023-07-22T01:40:25;100009.44;;;15.71;100.00
31761;BME280;18335;51.486;7.562;2023-07-22T01:42:52;100017.50;;;15.79;100.00
31761;BME280;18335;51.486;7.562;2023-07-22T01:45:19;100013.31;;;15.83;100.00
31761;BME280;18335;51.486;7.562;2023-07-22T01:47:45;100014.53;;;15.74;100.00
31761;BME280;18335;51.486;7.562;2023-07-22T01:50:12;100018.91;;;15.62;100.00
31761;BME280;18335;51.486;7.562;2023-07-22T01:52:39;100015.81;;;15.78;100.00
31761;BME280;18335;51.486;7.562;2023-07-22T01:55:07;100007.19;;;15.87;100.00
31761;BME280;18335;51.486;7.562;2023-07-22T01:57:38;100015.41;;;15.81;100.00
31761;BME280;18335;51.486;7.562;2023-07-22T02:00:06;100012.88;;;15.79;100.00
31761;BME280;18335;51.486;7.562;2023-07-22T02:02:39;100017.34;;;15.87;100.00
31761;BME280;18335;51.486;7.562;2023-07-22T02:05:06;100009.25;;;15.79;100.00
31761;BME280;18335;51.486;7.562;2023-07-22T02:07:34;100015.81;;;15.78;100.00
31761;BME280;18335;51.486;7.562;2023-07-22T02:10:01;100004.81;;;15.78;100.00
31761;BME280;18335;51.486;7.562;2023-07-22T02:12:28;100013.06;;;15.78;100.00
31761;BME280;18335;51.486;7.562;2023-07-22T02:14:57;100005.72;;;15.91;100.00
31761;BME280;18335;51.486;7.562;2023-07-22T02:17:23;100007.19;;;15.87;100.00
31761;BME280;18335;51.486;7.562;2023-07-22T02:19:50;100003.97;;;15.84;100.00
31761;BME280;18335;51.486;7.562;2023-07-22T02:22:17;100002.97;;;15.91;100.00
31761;BME280;18335;51.486;7.562;2023-07-22T02:24:44;99995.13;;;15.95;100.00
31761;BME280;18335;51.486;7.562;2023-07-22T02:27:10;100005.31;;;15.94;100.00
31761;BME280;18335;51.486;7.562;2023-07-22T02:29:37;99994.56;;;16.19;100.00
31761;BME280;18335;51.486;7.562;2023-07-22T02:32:06;99994.63;;;16.32;100.00
31761;BME280;18335;51.486;7.562;2023-07-22T02:34:33;99997.75;;;16.10;100.00
31761;BME280;18335;51.486;7.562;2023-07-22T02:37:00;99999.25;;;16.19;100.00
31761;BME280;18335;51.486;7.562;2023-07-22T02:39:27;99998.63;;;16.23;100.00
31761;BME280;18335;51.486;7.562;2023-07-22T02:41:54;100003.94;;;16.31;100.00
31761;BME280;18335;51.486;7.562;2023-07-22T02:44:20;100002.88;;;16.32;100.00
31761;BME280;18335;51.486;7.562;2023-07-22T02:46:47;100008.59;;;16.37;100.00
31761;BME280;18335;51.486;7.562;2023-07-22T02:49:15;100008.56;;;16.31;100.00
31761;BME280;18335;51.486;7.562;2023-07-22T02:51:42;100010.50;;;16.37;100.00
31761;BME280;18335;51.486;7.562;2023-07-22T02:54:08;100010.09;;;16.33;100.00
31761;BME280;18335;51.486;7.562;2023-07-22T02:56:35;100003.28;;;16.29;100.00
31761;BME280;18335;51.486;7.562;2023-07-22T02:59:02;100007.94;;;16.22;100.00
31761;BME280;18335;51.486;7.562;2023-07-22T03:01:29;100009.41;;;16.25;100.00
31761;BME280;18335;51.486;7.562;2023-07-22T03:03:56;100013.44;;;16.22;100.00
31761;BME280;18335;51.486;7.562;2023-07-22T03:06:24;100011.31;;;16.18;100.00
31761;BME280;18335;51.486;7.562;2023-07-22T03:08:52;100010.81;;;16.01;100.00
31761;BME280;18335;51.486;7.562;2023-07-22T03:11:18;100009.56;;;15.97;100.00
31761;BME280;18335;51.486;7.562;2023-07-22T03:13:45;100004.69;;;15.99;100.00
31761;BME280;18335;51.486;7.562;2023-07-22T03:16:13;100007.81;;;15.89;100.00
31761;BME280;18335;51.486;7.562;2023-07-22T03:18:40;100013.81;;;16.06;100.00
31761;BME280;18335;51.486;7.562;2023-07-22T03:21:08;100013.00;;;16.25;100.00
31761;BME280;18335;51.486;7.562;2023-07-22T03:23:36;100010.69;;;16.22;100.00
31761;BME280;18335;51.486;7.562;2023-07-22T03:26:03;100008.34;;;16.19;100.00
31761;BME280;18335;51.486;7.562;2023-07-22T03:28:31;100010.53;;;16.43;100.00
31761;BME280;18335;51.486;7.562;2023-07-22T03:30:58;100009.22;;;16.26;100.00
31761;BME280;18335;51.486;7.562;2023-07-22T03:33:25;100011.75;;;16.21;100.00
31761;BME280;18335;51.486;7.562;2023-07-22T03:35:52;100014.31;;;16.29;100.00
31761;BME280;18335;51.486;7.562;2023-07-22T03:38:18;100020.22;;;16.26;100.00
31761;BME280;18335;51.486;7.562;2023-07-22T03:40:47;100006.88;;;16.23;100.00
31761;BME280;18335;51.486;7.562;2023-07-22T03:43:13;100012.22;;;16.44;100.00
31761;BME280;18335;51.486;7.562;2023-07-22T03:45:40;100011.53;;;16.23;100.00
31761;BME280;18335;51.486;7.562;2023-07-22T03:48:07;100018.38;;;16.46;100.00
31761;BME280;18335;51.486;7.562;2023-07-22T03:50:34;100018.53;;;16.25;100.00
31761;BME280;18335;51.486;7.562;2023-07-22T03:53:01;100021.00;;;16.07;100.00
31761;BME280;18335;51.486;7.562;2023-07-22T03:55:28;100010.69;;;16.16;100.00
31761;BME280;18335;51.486;7.562;2023-07-22T03:57:56;100016.84;;;16.31;100.00
31761;BME280;18335;51.486;7.562;2023-07-22T04:00:23;100015.53;;;16.14;100.00
31761;BME280;18335;51.486;7.562;2023-07-22T04:02:49;100016.22;;;16.35;100.00
31761;BME280;18335;51.486;7.562;2023-07-22T04:05:16;100013.81;;;16.06;100.00
31761;BME280;18335;51.486;7.562;2023-07-22T04:07:44;100018.91;;;16.09;100.00
31761;BME280;18335;51.486;7.562;2023-07-22T04:10:11;100013.66;;;16.21;100.00
31761;BME280;18335;51.486;7.562;2023-07-22T04:12:37;100015.78;;;16.19;100.00
31761;BME280;18335;51.486;7.562;2023-07-22T04:15:07;100011.91;;;16.13;100.00
31761;BME280;18335;51.486;7.562;2023-07-22T04:17:33;100016.44;;;16.27;100.00
31761;BME280;18335;51.486;7.562;2023-07-22T04:20:00;100022.28;;;16.04;100.00
31761;BME280;18335;51.486;7.562;2023-07-22T04:22:28;100010.69;;;16.29;100.00
31761;BME280;18335;51.486;7.562;2023-07-22T04:24:58;100012.16;;;16.25;100.00
31761;BME280;18335;51.486;7.562;2023-07-22T04:27:26;100014.66;;;16.13;100.00
31761;BME280;18335;51.486;7.562;2023-07-22T04:29:53;100016.41;;;16.34;100.00
31761;BME280;18335;51.486;7.562;2023-07-22T04:32:21;100018.97;;;16.29;100.00
31761;BME280;18335;51.486;7.562;2023-07-22T04:34:49;100022.63;;;16.42;100.00
31761;BME280;18335;51.486;7.562;2023-07-22T04:37:16;100023.69;;;16.48;100.00
31761;BME280;18335;51.486;7.562;2023-07-22T04:39:47;100026.22;;;16.49;100.00
31761;BME280;18335;51.486;7.562;2023-07-22T04:42:14;100027.47;;;16.40;100.00
31761;BME280;18335;51.486;7.562;2023-07-22T04:44:42;100027.91;;;16.50;100.00
31761;BME280;18335;51.486;7.562;2023-07-22T04:47:10;100022.81;;;16.47;100.00
31761;BME280;18335;51.486;7.562;2023-07-22T04:49:39;100027.34;;;16.68;100.00
31761;BME280;18335;51.486;7.562;2023-07-22T04:52:07;100027.13;;;16.83;100.00
31761;BME280;18335;51.486;7.562;2023-07-22T04:54:33;100024.59;;;16.88;100.00
31761;BME280;18335;51.486;7.562;2023-07-22T04:57:00;100027.97;;;16.70;100.00
31761;BME280;18335;51.486;7.562;2023-07-22T04:59:28;100038.59;;;16.80;100.00
31761;BME280;18335;51.486;7.562;2023-07-22T05:01:55;100032.22;;;16.86;100.00
31761;BME280;18335;51.486;7.562;2023-07-22T05:04:21;100028.63;;;16.92;100.00
31761;BME280;18335;51.486;7.562;2023-07-22T05:06:50;100028.63;;;16.92;100.00
31761;BME280;18335;51.486;7.562;2023-07-22T05:09:16;100030.94;;;16.82;100.00
31761;BME280;18335;51.486;7.562;2023-07-22T05:11:43;100037.94;;;16.65;100.00
31761;BME280;18335;51.486;7.562;2023-07-22T05:14:10;100024.78;;;16.73;100.00
31761;BME280;18335;51.486;7.562;2023-07-22T05:16:36;100023.31;;;16.77;100.00
31761;BME280;18335;51.486;7.562;2023-07-22T05:19:03;100026.69;;;16.79;100.00
31761;BME280;18335;51.486;7.562;2023-07-22T05:21:30;100022.91;;;16.87;100.00
31761;BME280;18335;51.486;7.562;2023-07-22T05:23:59;100033.06;;;16.86;100.00
31761;BME280;18335;51.486;7.562;2023-07-22T05:26:25;100028.00;;;17.16;100.00
31761;BME280;18335;51.486;7.562;2023-07-22T05:28:52;100024.59;;;17.14;100.00
31761;BME280;18335;51.486;7.562;2023-07-22T05:31:19;100017.81;;;17.10;100.00
31761;BME280;18335;51.486;7.562;2023-07-22T05:33:46;100019.66;;;17.42;100.00
31761;BME280;18335;51.486;7.562;2023-07-22T05:36:13;100008.41;;;17.50;100.00
31761;BME280;18335;51.486;7.562;2023-07-22T05:38:39;100020.94;;;17.46;100.00
31761;BME280;18335;51.486;7.562;2023-07-22T05:41:07;100017.31;;;17.52;100.00
31761;BME280;18335;51.486;7.562;2023-07-22T05:43:34;100014.50;;;17.79;100.00
31761;BME280;18335;51.486;7.562;2023-07-22T05:46:01;100022.00;;;17.52;100.00
31761;BME280;18335;51.486;7.562;2023-07-22T05:48:28;100027.91;;;17.68;100.00
31761;BME280;18335;51.486;7.562;2023-07-22T05:50:55;100027.09;;;17.48;100.00
31761;BME280;18335;51.486;7.562;2023-07-22T05:53:22;100036.84;;;17.51;100.00
31761;BME280;18335;51.486;7.562;2023-07-22T05:55:48;100036.00;;;17.63;100.00
31761;BME280;18335;51.486;7.562;2023-07-22T05:58:17;100033.84;;;17.65;100.00
31761;BME280;18335;51.486;7.562;2023-07-22T06:00:45;100029.28;;;18.04;100.00
31761;BME280;18335;51.486;7.562;2023-07-22T06:03:12;100024.81;;;18.09;100.00
31761;BME280;18335;51.486;7.562;2023-07-22T06:05:38;100021.47;;;18.39;100.00
31761;BME280;18335;51.486;7.562;2023-07-22T06:08:05;100024.06;;;18.34;100.00
31761;BME280;18335;51.486;7.562;2023-07-22T06:10:32;100021.53;;;18.25;100.00
31761;BME280;18335;51.486;7.562;2023-07-22T06:12:59;100024.63;;;18.42;100.00
31761;BME280;18335;51.486;7.562;2023-07-22T06:15:27;100015.78;;;18.27;100.00
31761;BME280;18335;51.486;7.562;2023-07-22T06:17:54;100018.25;;;18.42;100.00
31761;BME280;18335;51.486;7.562;2023-07-22T06:20:21;100021.19;;;18.53;100.00
31761;BME280;18335;51.486;7.562;2023-07-22T06:22:48;100022.88;;;18.54;100.00
31761;BME280;18335;51.486;7.562;2023-07-22T06:25:15;100017.25;;;18.99;100.00
31761;BME280;18335;51.486;7.562;2023-07-22T06:27:41;100011.41;;;18.82;100.00
31761;BME280;18335;51.486;7.562;2023-07-22T06:30:09;100013.22;;;18.95;100.00
31761;BME280;18335;51.486;7.562;2023-07-22T06:32:38;100011.06;;;18.97;100.00
31761;BME280;18335;51.486;7.562;2023-07-22T06:35:06;100021.00;;;18.79;100.00
31761;BME280;18335;51.486;7.562;2023-07-22T06:37:33;100020.72;;;18.88;100.00
31761;BME280;18335;51.486;7.562;2023-07-22T06:40:00;100020.91;;;18.93;100.00
31761;BME280;18335;51.486;7.562;2023-07-22T06:42:27;100024.97;;;18.59;100.00
31761;BME280;18335;51.486;7.562;2023-07-22T06:44:54;100019.59;;;18.95;100.00
31761;BME280;18335;51.486;7.562;2023-07-22T06:47:20;100020.06;;;18.92;100.00
31761;BME280;18335;51.486;7.562;2023-07-22T06:49:48;100029.19;;;18.93;100.00
31761;BME280;18335;51.486;7.562;2023-07-22T06:52:16;100020.47;;;19.39;100.00
31761;BME280;18335;51.486;7.562;2023-07-22T06:54:42;100024.75;;;19.16;100.00
31761;BME280;18335;51.486;7.562;2023-07-22T06:57:09;100016.00;;;19.19;100.00
31761;BME280;18335;51.486;7.562;2023-07-22T06:59:36;100023.09;;;19.58;100.00
31761;BME280;18335;51.486;7.562;2023-07-22T07:02:03;100014.50;;;19.42;100.00
31761;BME280;18335;51.486;7.562;2023-07-22T07:04:31;100009.09;;;19.71;100.00
31761;BME280;18335;51.486;7.562;2023-07-22T07:06:59;100021.47;;;19.26;100.00
31761;BME280;18335;51.486;7.562;2023-07-22T07:09:26;100022.69;;;19.30;100.00
31761;BME280;18335;51.486;7.562;2023-07-22T07:11:53;100018.63;;;19.57;100.00
31761;BME280;18335;51.486;7.562;2023-07-22T07:14:22;100021.25;;;19.88;100.00
31761;BME280;18335;51.486;7.562;2023-07-22T07:16:49;100020.47;;;19.81;100.00
31761;BME280;18335;51.486;7.562;2023-07-22T07:19:16;100016.31;;;20.09;100.00
31761;BME280;18335;51.486;7.562;2023-07-22T07:21:42;100020.06;;;20.14;100.00
31761;BME280;18335;51.486;7.562;2023-07-22T07:24:10;100016.06;;;20.10;100.00
31761;BME280;18335;51.486;7.562;2023-07-22T07:26:37;100011.69;;;20.21;100.00
31761;BME280;18335;51.486;7.562;2023-07-22T07:29:04;100011.69;;;20.21;100.00
31761;BME280;18335;51.486;7.562;2023-07-22T07:31:31;100009.78;;;19.85;100.00
31761;BME280;18335;51.486;7.562;2023-07-22T07:33:58;100008.78;;;19.98;100.00
31761;BME280;18335;51.486;7.562;2023-07-22T07:36:24;100007.00;;;20.03;100.00
31761;BME280;18335;51.486;7.562;2023-07-22T07:38:51;100017.81;;;20.23;100.00
31761;BME280;18335;51.486;7.562;2023-07-22T07:41:19;100009.00;;;20.14;100.00
31761;BME280;18335;51.486;7.562;2023-07-22T07:43:46;100010.25;;;20.48;100.00
31761;BME280;18335;51.486;7.562;2023-07-22T07:46:15;100002.53;;;20.91;100.00
31761;BME280;18335;51.486;7.562;2023-07-22T07:48:43;100014.34;;;20.87;100.00
31761;BME280;18335;51.486;7.562;2023-07-22T07:51:12;100017.41;;;20.67;100.00
31761;BME280;18335;51.486;7.562;2023-07-22T07:53:38;100018.78;;;20.76;100.00
31761;BME280;18335;51.486;7.562;2023-07-22T07:56:05;100020.53;;;20.59;100.00
31761;BME280;18335;51.486;7.562;2023-07-22T07:58:33;100019.19;;;20.91;100.00
31761;BME280;18335;51.486;7.562;2023-07-22T08:01:00;100026.59;;;20.68;100.00
31761;BME280;18335;51.486;7.562;2023-07-22T08:03:27;100018.28;;;21.09;100.00
31761;BME280;18335;51.486;7.562;2023-07-22T08:05:53;100016.19;;;21.05;100.00
31761;BME280;18335;51.486;7.562;2023-07-22T08:08:21;100013.50;;;20.86;100.00
31761;BME280;18335;51.486;7.562;2023-07-22T08:10:57;100021.91;;;20.68;100.00
31761;BME280;18335;51.486;7.562;2023-07-22T08:13:24;100017.41;;;21.09;100.00
31761;BME280;18335;51.486;7.562;2023-07-22T08:15:52;100020.50;;;20.89;100.00
31761;BME280;18335;51.486;7.562;2023-07-22T08:18:19;100016.25;;;21.28;100.00
31761;BME280;18335;51.486;7.562;2023-07-22T08:20:45;100008.88;;;21.45;100.00
31761;BME280;18335;51.486;7.562;2023-07-22T08:23:13;100015.28;;;21.22;100.00
31761;BME280;18335;51.486;7.562;2023-07-22T08:25:39;100025.66;;;21.27;100.00
31761;BME280;18335;51.486;7.562;2023-07-22T08:28:06;100032.06;;;21.39;100.00
31761;BME280;18335;51.486;7.562;2023-07-22T08:30:33;100022.75;;;21.45;100.00
31761;BME280;18335;51.486;7.562;2023-07-22T08:33:01;100012.03;;;21.48;100.00
31761;BME280;18335;51.486;7.562;2023-07-22T08:35:28;100018.78;;;21.52;100.00
31761;BME280;18335;51.486;7.562;2023-07-22T08:37:54;100008.13;;;21.73;100.00
31761;BME280;18335;51.486;7.562;2023-07-22T08:40:21;100013.94;;;21.48;100.00
31761;BME280;18335;51.486;7.562;2023-07-22T08:42:49;100006.09;;;21.91;100.00
31761;BME280;18335;51.486;7.562;2023-07-22T08:45:16;100013.69;;;21.73;100.00
31761;BME280;18335;51.486;7.562;2023-07-22T08:47:45;100012.34;;;21.75;100.00
31761;BME280;18335;51.486;7.562;2023-07-22T08:50:18;100008.59;;;21.81;100.00
31761;BME280;18335;51.486;7.562;2023-07-22T08:52:46;100004.66;;;21.77;100.00
31761;BME280;18335;51.486;7.562;2023-07-22T08:55:13;100005.53;;;22.18;100.00
31761;BME280;18335;51.486;7.562;2023-07-22T08:57:41;100008.25;;;21.89;100.00
31761;BME280;18335;51.486;7.562;2023-07-22T09:00:08;100014.25;;;21.86;100.00
31761;BME280;18335;51.486;7.562;2023-07-22T09:02:37;100001.81;;;22.12;100.00
31761;BME280;18335;51.486;7.562;2023-07-22T09:05:06;100006.56;;;22.40;100.00
31761;BME280;18335;51.486;7.562;2023-07-22T09:07:36;99997.09;;;22.41;100.00
31761;BME280;18335;51.486;7.562;2023-07-22T09:10:05;100007.50;;;22.62;100.00
31761;BME280;18335;51.486;7.562;2023-07-22T09:12:33;99995.78;;;22.03;100.00
31761;BME280;18335;51.486;7.562;2023-07-22T09:15:07;100002.34;;;22.66;100.00
31761;BME280;18335;51.486;7.562;2023-07-22T09:17:36;99999.63;;;22.71;100.00
31761;BME280;18335;51.486;7.562;2023-07-22T09:20:03;99998.25;;;22.56;94.91
31761;BME280;18335;51.486;7.562;2023-07-22T09:22:31;100004.03;;;22.83;97.54
31761;BME280;18335;51.486;7.562;2023-07-22T09:25:13;100006.41;;;22.75;96.59
31761;BME280;18335;51.486;7.562;2023-07-22T09:27:41;99999.53;;;23.44;100.00
31761;BME280;18335;51.486;7.562;2023-07-22T09:30:20;100001.34;;;22.88;92.99
31761;BME280;18335;51.486;7.562;2023-07-22T09:32:47;99999.50;;;23.27;96.23
31761;BME280;18335;51.486;7.562;2023-07-22T09:35:14;99999.19;;;23.24;97.11
31761;BME280;18335;51.486;7.562;2023-07-22T09:37:41;99998.13;;;22.80;98.61
31761;BME280;18335;51.486;7.562;2023-07-22T09:40:18;99995.81;;;22.32;98.22
31761;BME280;18335;51.486;7.562;2023-07-22T09:42:47;100004.28;;;22.53;96.24
31761;BME280;18335;51.486;7.562;2023-07-22T09:45:14;100000.19;;;23.01;97.71
31761;BME280;18335;51.486;7.562;2023-07-22T09:47:41;100003.53;;;22.86;98.04
31761;BME280;18335;51.486;7.562;2023-07-22T09:50:13;100003.03;;;22.89;91.96
31761;BME280;18335;51.486;7.562;2023-07-22T09:52:42;100004.03;;;22.83;100.00
31761;BME280;18335;51.486;7.562;2023-07-22T09:55:09;100004.44;;;22.47;91.84
31761;BME280;18335;51.486;7.562;2023-07-22T09:57:43;100009.72;;;22.60;99.58
31761;BME280;18335;51.486;7.562;2023-07-22T10:00:10;100007.13;;;22.42;94.75
31761;BME280;18335;51.486;7.562;2023-07-22T10:02:41;100011.13;;;22.46;94.10
31761;BME280;18335;51.486;7.562;2023-07-22T10:05:12;100004.16;;;22.60;94.46
31761;BME280;18335;51.486;7.562;2023-07-22T10:07:43;100006.75;;;22.78;94.02
31761;BME280;18335;51.486;7.562;2023-07-22T10:10:11;100007.44;;;22.57;94.22
31761;BME280;18335;51.486;7.562;2023-07-22T10:12:40;99998.97;;;22.80;89.15
31761;BME280;18335;51.486;7.562;2023-07-22T10:15:09;100000.34;;;23.28;89.83
31761;BME280;18335;51.486;7.562;2023-07-22T10:17:36;99996.81;;;23.15;84.51
31761;BME280;18335;51.486;7.562;2023-07-22T10:20:04;99992.94;;;23.50;90.22
31761;BME280;18335;51.486;7.562;2023-07-22T10:22:34;99991.31;;;23.54;85.45
31761;BME280;18335;51.486;7.562;2023-07-22T10:25:01;100001.03;;;23.35;88.20
31761;BME280;18335;51.486;7.562;2023-07-22T10:27:30;99998.47;;;23.33;88.25
31761;BME280;18335;51.486;7.562;2023-07-22T10:29:59;99988.91;;;23.62;93.17
31761;BME280;18335;51.486;7.562;2023-07-22T10:32:31;99992.34;;;23.48;90.42
31761;BME280;18335;51.486;7.562;2023-07-22T10:34:58;99994.78;;;22.94;97.94
31761;BME280;18335;51.486;7.562;2023-07-22T10:37:29;99982.78;;;23.60;95.23
31761;BME280;18335;51.486;7.562;2023-07-22T10:39:59;99985.75;;;23.92;89.47
31761;BME280;18335;51.486;7.562;2023-07-22T10:42:26;99968.81;;;23.99;90.76
31761;BME280;18335;51.486;7.562;2023-07-22T10:44:53;99970.97;;;24.13;88.69
31761;BME280;18335;51.486;7.562;2023-07-22T10:47:33;99977.44;;;23.97;86.77
31761;BME280;18335;51.486;7.562;2023-07-22T10:50:05;99974.78;;;23.86;88.53
31761;BME280;18335;51.486;7.562;2023-07-22T10:52:51;99977.78;;;24.01;85.54
31761;BME280;18335;51.486;7.562;2023-07-22T10:55:18;99976.50;;;23.70;88.44
31761;BME280;18335;51.486;7.562;2023-07-22T10:57:49;99980.25;;;23.59;84.31
31761;BME280;18335;51.486;7.562;2023-07-22T11:00:20;99976.34;;;23.98;87.83
31761;BME280;18335;51.486;7.562;2023-07-22T11:03:08;99973.34;;;23.61;89.32
31761;BME280;18335;51.486;7.562;2023-07-22T11:05:49;99965.22;;;23.60;87.55
31761;BME280;18335;51.486;7.562;2023-07-22T11:08:35;99960.53;;;23.82;89.94
31761;BME280;18335;51.486;7.562;2023-07-22T11:11:03;99957.06;;;23.37;85.03
31761;BME280;18335;51.486;7.562;2023-07-22T11:13:35;99955.31;;;22.97;91.03
31761;BME280;18335;51.486;7.562;2023-07-22T11:16:03;99955.63;;;23.51;87.63
31761;BME280;18335;51.486;7.562;2023-07-22T11:18:38;99950.13;;;24.16;82.28
31761;BME280;18335;51.486;7.562;2023-07-22T11:21:10;99955.09;;;24.41;89.40
31761;BME280;18335;51.486;7.562;2023-07-22T11:23:37;99942.97;;;24.52;83.57
31761;BME280;18335;51.486;7.562;2023-07-22T11:26:04;99942.56;;;24.43;79.13
31761;BME280;18335;51.486;7.562;2023-07-22T11:28:31;99932.09;;;24.82;80.65
31761;BME280;18335;51.486;7.562;2023-07-22T11:30:58;99922.34;;;25.21;81.53
31761;BME280;18335;51.486;7.562;2023-07-22T11:33:38;99942.69;;;24.53;83.18
31761;BME280;18335;51.486;7.562;2023-07-22T11:36:05;99930.69;;;24.26;75.37
31761;BME280;18335;51.486;7.562;2023-07-22T11:38:32;99930.84;;;24.41;78.74
31761;BME280;18335;51.486;7.562;2023-07-22T11:40:59;99934.69;;;24.62;72.62
31761;BME280;18335;51.486;7.562;2023-07-22T11:43:26;99934.41;;;24.90;70.85
31761;BME280;18335;51.486;7.562;2023-07-22T11:45:53;99932.25;;;24.70;74.47
31761;BME280;18335;51.486;7.562;2023-07-22T11:48:20;99923.44;;;25.15;72.90
31761;BME280;18335;51.486;7.562;2023-07-22T11:50:48;99927.50;;;24.98;75.06
31761;BME280;18335;51.486;7.562;2023-07-22T11:53:15;99914.63;;;25.33;65.03
31761;BME280;18335;51.486;7.562;2023-07-22T11:55:42;99924.72;;;25.40;70.41
31761;BME280;18335;51.486;7.562;2023-07-22T11:58:10;99919.63;;;25.26;62.67
31761;BME280;18335;51.486;7.562;2023-07-22T12:00:36;99920.81;;;25.93;62.25
31761;BME280;18335;51.486;7.562;2023-07-22T12:03:05;99922.47;;;25.37;63.83
31761;BME280;18335;51.486;7.562;2023-07-22T12:05:35;99913.50;;;25.29;65.09
31761;BME280;18335;51.486;7.562;2023-07-22T12:08:04;99913.97;;;25.16;59.91
31761;BME280;18335;51.486;7.562;2023-07-22T12:10:32;99911.63;;;25.45;57.50
31761;BME280;18335;51.486;7.562;2023-07-22T12:13:00;99904.41;;;25.49;62.87
31761;BME280;18335;51.486;7.562;2023-07-22T12:15:27;99904.47;;;25.17;59.42
31761;BME280;18335;51.486;7.562;2023-07-22T12:17:56;99911.41;;;24.78;61.92
31761;BME280;18335;51.486;7.562;2023-07-22T12:20:24;99902.44;;;24.76;61.11
31761;BME280;18335;51.486;7.562;2023-07-22T12:22:51;99901.25;;;25.41;73.68
31761;BME280;18335;51.486;7.562;2023-07-22T12:25:20;99902.97;;;25.42;66.71
31761;BME280;18335;51.486;7.562;2023-07-22T12:27:47;99893.09;;;25.81;58.97
31761;BME280;18335;51.486;7.562;2023-07-22T12:30:14;99887.00;;;25.94;56.26
31761;BME280;18335;51.486;7.562;2023-07-22T12:32:40;99880.97;;;26.37;56.54
31761;BME280;18335;51.486;7.562;2023-07-22T12:35:07;99874.69;;;25.90;58.66
31761;BME280;18335;51.486;7.562;2023-07-22T12:37:35;99896.59;;;26.13;54.96
31761;BME280;18335;51.486;7.562;2023-07-22T12:40:02;99891.31;;;25.55;54.36
31761;BME280;18335;51.486;7.562;2023-07-22T12:42:32;99885.44;;;26.18;55.88
31761;BME280;18335;51.486;7.562;2023-07-22T12:44:59;99881.47;;;26.14;60.41
31761;BME280;18335;51.486;7.562;2023-07-22T12:47:26;99876.41;;;26.11;55.08
31761;BME280;18335;51.486;7.562;2023-07-22T12:49:53;99874.75;;;25.43;58.24